Dubuque, IA

7:19 AM CDT on April 27, 2017 (GMT -0500)
City Hall Annex | | Change Station
Active Advisory: Frost Advisory

Elev 640 ft 42.51 °N, 90.67 °W | Updated 4 minutes ago

Rain
Rain
34.8 °F
Feels Like 31 °F
N
4.0
Wind Variable Wind from WNW
Gusts 9.0 mph

Today
High -- | Low -- °F
--% Chance of Precip.
Yesterday
High -- | Low -- °F
Precip. -- in
Pressure 29.49 in
Visibility 1.2 miles
Clouds Mostly Cloudy 700 ft
Overcast 1700 ft
Windchill 31 °F
Dew Point 33 °F
Humidity 93%
Rainfall 0.42 in
Snow Depth Not available.
6:02 AM 7:58 PM
New Moon, 2% visible
METAR KDBQ 271153Z 28011KT 1 1/4SM R36/5500VP6000FT -SN BR BKN007 OVC017 01/00 A2947 RMK AO2 RAE26SNB26 SLP985 P0003 60042 70056 T00060000 10050 20006 53010
Pressure 29.49 in
Visibility 1.2 miles
Clouds Mostly Cloudy 700 ft
Overcast 1700 ft
Windchill 31 °F
Dew Point 33 °F
Humidity 93%
Rainfall 0.42 in
Snow Depth Not available.
6:02 AM 7:58 PM
New Moon, 2% visible
METAR KDBQ 271153Z 28011KT 1 1/4SM R36/5500VP6000FT -SN BR BKN007 OVC017 01/00 A2947 RMK AO2 RAE26SNB26 SLP985 P0003 60042 70056 T00060000 10050 20006 53010

Get Your Daily Forecast Email!

Thanks for signing up!

Be on the lookout for a verification email in your inbox.

You'll start receiving severe weather alerts in your inbox..

×

10-Day Weather Forecast

Almanac

Astronomy

Apr. 27, 2017 Rise Set
Actual Time
Civil Twilight
Nautical Twilight
Astronomical Twilight
Moon
Length of Visible Light
Length of Day
Tomorrow will be .
, % of the Moon is Illuminated

Today's Extremes

State Highs State Lows

Community

WunderPhotos

WunderBlog® & News

Nearby

Air Quality

  Air Quality AQ Index Pollutant
Not available.

Snow Depth

Station Depth Elevation

Earthquake Activity

City Distance Mag. Time & Date
Minimum magnitude displayed is 2.5.

Coastal Water Temperatures

Place Temperature

Stations

Nearby Weather Stations

Station Location Temp. Windchill Dew Point Humidity Wind Precip. Elev Updated Type
                   

Watches & Warnings

Frost Advisory
Issued: 3:22 AM CDT Apr. 27, 2017 – National Weather Service

... Frost advisory in effect from 1 am to 8 am CDT Friday...

The National Weather Service in the Quad Cities has issued a
frost advisory... which is in effect from 1 am to 8 am CDT Friday.

* Temperatures... in the middle 30s.

* Timing... 1 am CDT Friday through 8 am CDT Friday.

* Impacts... the frost could damage plants across the advisory
area. Be sure to move vunerable plants inside or cover them
overnight.

Precautionary/preparedness actions...

A frost advisory means that frost is likely. Cover or move
sensitive plants indoors.



Gibbs